createdAt,value
2017-06-17T02:40:30.713Z,17.47
2017-06-17T02:52:07.425Z,11.70
2017-06-17T03:00:50.888Z,16.93
2017-06-17T03:03:24.510Z,13.13
2017-06-17T04:47:51.943Z,5.73
2017-06-17T05:56:55.790Z,5.23
2017-06-17T05:59:25.232Z,3.17
2017-06-17T06:01:53.717Z,4.80
2017-06-17T06:04:22.295Z,8.07
2017-06-17T06:06:51.170Z,4.73
2017-06-17T06:09:19.599Z,7.60
2017-06-17T06:14:56.642Z,3.50
2017-06-17T06:17:25.197Z,16.40
2017-06-17T06:19:53.950Z,8.67
2017-06-17T06:22:22.327Z,3.07
2017-06-17T06:27:57.903Z,4.00
2017-06-17T06:30:41.263Z,6.60
2017-06-17T06:33:09.650Z,6.67
2017-06-17T06:35:42.004Z,7.20
2017-06-17T06:41:10.757Z,8.17
2017-06-17T07:08:00.607Z,12.40
2017-06-17T07:13:41.840Z,6.43
2017-06-17T07:22:10.922Z,6.33
2017-06-17T07:24:40.052Z,13.27
2017-06-17T07:27:08.390Z,8.93
2017-06-17T07:32:56.265Z,21.73
2017-06-17T07:38:26.976Z,7.27
2017-06-17T07:40:55.600Z,13.50
2017-06-17T07:43:24.009Z,15.10
2017-06-17T07:45:52.648Z,10.53
2017-06-17T07:48:21.051Z,14.37
2017-06-17T07:57:35.557Z,17.40
2017-06-17T08:00:44.483Z,12.77
2017-06-17T08:03:15.511Z,12.03
2017-06-17T08:05:43.915Z,11.73
2017-06-17T08:08:12.516Z,9.50
2017-06-17T08:10:41.085Z,14.47
2017-06-17T08:13:09.524Z,8.40
2017-06-17T08:15:38.103Z,11.90
2017-06-17T08:18:06.490Z,19.50
2017-06-17T08:20:46.278Z,15.93
2017-06-17T08:23:45.356Z,10.37
2017-06-17T08:29:32.547Z,22.13
2017-06-17T08:32:00.939Z,11.00
2017-06-17T08:34:47.746Z,12.57
2017-06-17T08:37:16.117Z,15.27
2017-06-17T08:42:54.933Z,13.70
2017-06-17T08:45:23.451Z,14.30
2017-06-17T08:50:44.757Z,12.57
2017-06-17T08:53:13.176Z,10.10
2017-06-17T08:55:41.554Z,11.73
2017-06-17T08:58:09.951Z,10.80
2017-06-17T09:00:38.353Z,15.00
2017-06-17T09:09:36.925Z,9.10
2017-06-17T09:12:05.347Z,11.10
2017-06-17T09:14:33.733Z,9.13
2017-06-17T09:17:02.136Z,12.60
2017-06-17T09:19:30.608Z,12.20
2017-06-17T09:21:59.050Z,10.73
2017-06-17T09:24:27.436Z,13.93
2017-06-17T09:26:55.851Z,9.83
2017-06-17T09:29:24.228Z,12.77
2017-06-17T09:31:52.743Z,13.20
2017-06-17T09:34:21.076Z,16.50
2017-06-17T09:36:49.462Z,13.57
2017-06-17T09:39:17.848Z,11.33
2017-06-17T09:41:46.244Z,10.90
2017-06-17T09:44:14.659Z,11.30
2017-06-17T09:46:43.114Z,9.97
2017-06-17T09:49:11.832Z,11.33
2017-06-17T09:51:40.241Z,8.70
2017-06-17T09:54:08.661Z,10.00
2017-06-17T09:56:37.057Z,9.63
2017-06-17T09:59:05.455Z,9.13
2017-06-17T10:01:33.856Z,10.10
2017-06-17T10:04:02.292Z,12.03
2017-06-17T10:06:30.683Z,17.57
2017-06-17T10:08:59.095Z,12.50
2017-06-17T10:11:27.514Z,15.90
2017-06-17T10:13:55.937Z,14.17
2017-06-17T10:16:24.583Z,18.53
2017-06-17T10:18:52.988Z,16.10
2017-06-17T10:21:21.428Z,19.60
2017-06-17T10:23:49.845Z,18.90
2017-06-17T10:26:18.347Z,18.50
2017-06-17T10:28:46.764Z,16.20
2017-06-17T10:31:15.275Z,27.63
2017-06-17T10:33:43.709Z,26.67
2017-06-17T10:36:12.727Z,19.33
2017-06-17T10:38:41.190Z,18.23
2017-06-17T10:41:09.668Z,32.90
2017-06-17T10:43:38.193Z,26.43
2017-06-17T10:46:06.643Z,21.37
2017-06-17T10:48:35.207Z,16.10
2017-06-17T10:51:03.612Z,35.17
2017-06-17T10:53:32.137Z,25.67
2017-06-17T10:56:00.633Z,29.70
2017-06-17T10:58:29.032Z,21.23
2017-06-17T11:00:57.635Z,24.80
2017-06-17T11:03:26.092Z,28.57
2017-06-17T11:05:54.500Z,24.00
2017-06-17T11:08:22.898Z,25.30
2017-06-17T11:10:52.689Z,26.63
2017-06-17T11:13:21.094Z,28.67
2017-06-17T11:15:49.448Z,22.57
2017-06-17T11:18:17.828Z,26.53
2017-06-17T11:20:46.149Z,28.50
2017-06-17T11:23:14.547Z,24.80
2017-06-17T11:25:42.911Z,25.50
2017-06-17T11:28:11.311Z,26.37
2017-06-17T11:30:39.677Z,23.63
2017-06-17T11:33:08.007Z,22.73
2017-06-17T11:35:36.754Z,32.70
2017-06-17T11:38:05.173Z,27.07
2017-06-17T11:40:33.829Z,27.53
2017-06-17T11:43:02.300Z,27.63
2017-06-17T11:45:30.632Z,27.00
2017-06-17T11:48:01.048Z,34.60
2017-06-17T11:50:29.355Z,24.97
2017-06-17T11:52:57.823Z,28.17
2017-06-17T11:55:27.122Z,26.20
2017-06-17T11:57:55.432Z,23.10
2017-06-17T12:00:23.812Z,29.80
2017-06-17T12:02:52.173Z,25.07
2017-06-17T12:05:20.555Z,26.80
2017-06-17T12:07:49.419Z,29.23
2017-06-17T12:10:18.123Z,19.10
2017-06-17T12:12:47.318Z,24.20
2017-06-17T12:15:16.165Z,17.17
2017-06-17T12:17:44.533Z,28.60
2017-06-17T12:20:12.857Z,23.30
2017-06-17T12:22:41.293Z,20.20
2017-06-17T12:25:09.673Z,23.97
2017-06-17T12:27:37.972Z,37.27
2017-06-17T12:30:06.272Z,26.73
2017-06-17T12:32:34.625Z,24.63
2017-06-17T12:35:02.944Z,32.70
2017-06-17T12:37:31.263Z,26.63
2017-06-17T12:39:59.611Z,24.83
2017-06-17T12:42:27.912Z,30.20
2017-06-17T12:44:56.257Z,28.60
2017-06-17T12:47:24.563Z,20.47
2017-06-17T12:49:52.871Z,23.30
2017-06-17T12:52:21.234Z,21.27
2017-06-17T12:54:49.562Z,23.40
2017-06-17T12:57:17.870Z,23.27
2017-06-17T12:59:46.223Z,27.63
2017-06-17T13:02:14.525Z,27.37
2017-06-17T13:04:42.866Z,25.53
2017-06-17T13:07:11.179Z,28.70
2017-06-17T13:09:40.011Z,34.57
2017-06-17T13:12:08.824Z,29.17
2017-06-17T13:14:38.034Z,30.73
2017-06-17T13:17:06.338Z,25.43
2017-06-17T13:19:34.688Z,31.90
2017-06-17T13:22:02.996Z,38.53
2017-06-17T13:24:31.315Z,33.47
2017-06-17T13:26:59.710Z,37.93
2017-06-17T13:29:28.042Z,27.17
2017-06-17T13:31:56.486Z,30.33
2017-06-17T13:34:24.806Z,30.70
2017-06-17T13:36:53.126Z,34.87
2017-06-17T13:39:21.483Z,31.87
2017-06-17T13:41:49.793Z,30.83
2017-06-17T13:44:18.147Z,36.23
2017-06-17T13:46:46.522Z,35.53
2017-06-17T13:49:14.835Z,42.13
2017-06-17T13:51:43.166Z,28.57
2017-06-17T13:54:11.524Z,38.20
2017-06-17T13:56:39.867Z,32.30
2017-06-17T13:59:08.316Z,34.57
2017-06-17T14:01:36.625Z,40.73
2017-06-17T14:04:05.229Z,37.20
2017-06-17T14:06:33.575Z,39.50
2017-06-17T14:09:01.906Z,41.63
2017-06-17T14:11:30.264Z,36.60
2017-06-17T14:13:58.584Z,39.93
2017-06-17T14:16:26.944Z,30.87
2017-06-17T14:18:55.319Z,48.93
2017-06-17T14:21:29.201Z,34.47
2017-06-17T14:23:57.550Z,34.63
2017-06-17T14:26:25.938Z,39.43
2017-06-17T14:28:54.260Z,35.33
2017-06-17T14:31:22.583Z,41.13
2017-06-17T14:33:50.978Z,47.23
2017-06-17T14:36:19.335Z,39.67
2017-06-17T14:38:47.646Z,64.10
2017-06-17T14:41:16.095Z,48.30
2017-06-17T14:43:44.407Z,50.93
2017-06-17T14:46:12.728Z,43.23
2017-06-17T14:48:41.881Z,43.00
2017-06-17T14:51:15.077Z,34.80
2017-06-17T14:53:43.452Z,36.40
2017-06-17T14:56:11.780Z,41.57
2017-06-17T14:58:40.149Z,42.50
2017-06-17T15:01:08.659Z,30.77
2017-06-17T15:03:37.007Z,40.03
2017-06-17T15:06:05.365Z,34.57
2017-06-17T15:08:33.698Z,33.13
2017-06-17T15:11:02.056Z,31.97
2017-06-17T15:13:30.505Z,36.43
2017-06-17T15:15:59.012Z,45.93
2017-06-17T15:18:27.347Z,31.80
2017-06-17T15:20:55.675Z,33.43
2017-06-17T15:23:24.035Z,32.77
2017-06-17T15:25:52.357Z,35.67
2017-06-17T15:28:20.692Z,33.63
2017-06-17T15:30:49.068Z,27.53
2017-06-17T15:33:17.412Z,36.63
2017-06-17T15:35:45.778Z,31.17
2017-06-17T15:38:14.188Z,32.77
2017-06-17T15:40:42.534Z,28.33
2017-06-17T15:43:10.841Z,46.50
2017-06-17T15:45:39.210Z,34.73
2017-06-17T15:48:07.538Z,33.87
2017-06-17T15:50:36.036Z,29.40
2017-06-17T15:53:04.420Z,28.50
2017-06-17T15:55:32.787Z,39.57
2017-06-17T15:58:01.180Z,35.27
2017-06-17T16:00:29.552Z,27.17
2017-06-17T16:02:58.164Z,31.93
2017-06-17T16:05:27.486Z,32.50
2017-06-17T16:07:55.823Z,27.60
2017-06-17T16:10:24.189Z,19.17
2017-06-17T16:12:52.493Z,31.60
2017-06-17T16:15:20.800Z,32.07
2017-06-17T16:17:49.171Z,33.23
2017-06-17T16:20:17.490Z,28.13
2017-06-17T16:22:45.805Z,24.80
2017-06-17T16:25:14.201Z,24.73
2017-06-17T16:27:42.583Z,28.53
2017-06-17T16:30:11.021Z,26.03
2017-06-17T16:32:39.375Z,22.23
2017-06-17T16:35:07.744Z,28.20
2017-06-17T16:37:36.068Z,29.83
2017-06-17T16:40:04.404Z,37.07
2017-06-17T16:42:32.871Z,37.50
2017-06-17T16:45:01.228Z,30.43
2017-06-17T16:47:29.563Z,30.60
2017-06-17T16:49:57.930Z,36.37
2017-06-17T16:52:26.304Z,39.13
2017-06-17T16:54:54.615Z,28.00
2017-06-17T16:57:23.022Z,19.73
2017-06-17T16:59:51.402Z,31.33
2017-06-17T17:02:19.746Z,32.33
2017-06-17T17:04:48.151Z,28.87
2017-06-17T17:07:16.484Z,31.37
2017-06-17T17:09:44.816Z,26.10
2017-06-17T17:12:13.223Z,26.43
2017-06-17T17:14:41.566Z,24.60
2017-06-17T17:17:09.926Z,31.50
2017-06-17T17:19:38.241Z,32.90
2017-06-17T17:22:06.587Z,33.93
2017-06-17T17:24:34.920Z,28.50
2017-06-17T17:27:03.247Z,25.17
2017-06-17T17:29:31.604Z,24.40
2017-06-17T17:32:02.510Z,20.13
2017-06-17T17:34:30.864Z,23.17
2017-06-17T17:36:59.218Z,22.90
2017-06-17T17:39:27.556Z,27.63
2017-06-17T17:41:55.921Z,22.73
2017-06-17T17:44:24.246Z,24.77
2017-06-17T17:46:52.635Z,24.77
2017-06-17T17:49:20.950Z,22.17
2017-06-17T17:51:50.895Z,24.03
2017-06-17T17:54:28.189Z,22.70
2017-06-17T17:56:56.508Z,33.13
2017-06-17T17:59:24.901Z,30.33
2017-06-17T18:01:53.224Z,18.13
2017-06-17T18:04:21.598Z,28.30
2017-06-17T18:06:49.968Z,25.80
2017-06-17T18:09:18.271Z,22.83
2017-06-17T18:11:47.874Z,32.33
2017-06-17T18:14:16.205Z,23.07
2017-06-17T18:16:44.529Z,24.50
2017-06-17T18:19:12.907Z,27.07
2017-06-17T18:21:41.241Z,28.30
2017-06-17T18:24:09.834Z,24.97
2017-06-17T18:26:38.142Z,27.17
2017-06-17T18:29:06.460Z,24.63
2017-06-17T18:31:34.827Z,30.10
2017-06-17T18:34:03.158Z,29.63
2017-06-17T18:36:31.544Z,24.83
2017-06-17T18:38:59.869Z,26.73
2017-06-17T18:41:28.197Z,23.17
2017-06-17T18:43:56.583Z,34.90
2017-06-17T18:46:24.900Z,30.00
2017-06-17T18:48:53.342Z,26.63
2017-06-17T18:51:21.702Z,26.87
2017-06-17T18:53:50.078Z,27.80
2017-06-17T18:56:18.416Z,21.10
2017-06-17T18:58:46.797Z,27.47
2017-06-17T19:01:15.184Z,22.53
2017-06-17T19:03:43.516Z,26.07
2017-06-17T19:06:12.875Z,23.80
2017-06-17T19:08:41.268Z,30.10
2017-06-17T19:11:09.633Z,26.70
2017-06-17T19:13:37.955Z,33.63
2017-06-17T19:16:06.295Z,31.27
2017-06-17T19:18:34.647Z,38.70
2017-06-17T19:21:03.062Z,26.87
2017-06-17T19:23:31.381Z,28.40
2017-06-17T19:26:01.710Z,31.83
2017-06-17T19:28:30.056Z,24.17
2017-06-17T19:30:58.388Z,27.17
2017-06-17T19:33:26.759Z,24.93
2017-06-17T19:35:55.074Z,27.13
2017-06-17T19:38:23.400Z,28.83
2017-06-17T19:40:53.149Z,30.93
2017-06-17T19:43:21.459Z,31.47
2017-06-17T19:45:49.937Z,36.33
2017-06-17T19:48:18.248Z,38.00
2017-06-17T19:50:46.580Z,34.03
2017-06-17T19:53:14.989Z,32.60
2017-06-17T19:55:43.321Z,35.87
2017-06-17T19:58:11.665Z,36.67
2017-06-17T20:00:40.033Z,34.37
2017-06-17T20:03:08.561Z,34.33
2017-06-17T20:05:36.881Z,34.37
2017-06-17T20:08:05.236Z,27.57
2017-06-17T20:10:33.596Z,43.00
2017-06-17T20:13:01.940Z,27.83
2017-06-17T20:15:30.307Z,48.83
2017-06-17T20:17:58.639Z,37.97
2017-06-17T20:20:26.953Z,37.07
2017-06-17T20:22:55.545Z,34.80
2017-06-17T20:25:23.873Z,35.27
2017-06-17T20:27:52.208Z,32.83
2017-06-17T20:30:20.619Z,37.90
2017-06-17T21:36:21.585Z,32.93
2017-06-17T21:42:03.680Z,37.93
2017-06-17T21:50:50.008Z,41.73
2017-06-17T21:53:31.961Z,44.13
2017-06-17T21:56:23.269Z,38.83
2017-06-17T21:59:10.779Z,38.97
2017-06-17T22:02:02.349Z,37.43
2017-06-17T22:04:43.724Z,40.17
2017-06-17T22:10:23.999Z,44.90
2017-06-17T22:13:04.909Z,53.70
2017-06-17T22:21:52.371Z,42.77
2017-06-17T22:24:34.709Z,49.17
2017-06-17T22:27:22.713Z,42.10
2017-06-17T22:29:51.053Z,48.20
2017-06-17T22:32:39.542Z,49.23
2017-06-17T22:35:31.174Z,46.17
2017-06-17T22:37:59.556Z,41.60
2017-06-17T22:40:44.936Z,46.30
2017-06-17T22:43:27.031Z,48.43
2017-06-17T22:55:01.785Z,43.20
2017-06-17T22:57:36.656Z,49.87
2017-06-17T23:03:19.140Z,48.87
2017-06-17T23:08:57.600Z,51.73
2017-06-17T23:11:43.133Z,53.57
2017-06-17T23:14:15.236Z,50.27
2017-06-17T23:19:54.621Z,58.80
2017-06-17T23:49:21.751Z,65.63
2017-06-17T23:55:01.842Z,71.90
2017-06-17T23:57:34.014Z,79.30
